sensor_id;sensor_type;location;lat;lon;timestamp;P1;durP1;ratioP1;P2;durP2;ratioP2
27402;SDS011;14862;49.494;8.530;2023-04-23T00:01:39;4.05;;;3.17;;
27402;SDS011;14862;49.494;8.530;2023-04-23T00:04:05;3.78;;;3.10;;
27402;SDS011;14862;49.494;8.530;2023-04-23T00:06:32;4.47;;;3.15;;
27402;SDS011;14862;49.494;8.530;2023-04-23T00:08:58;5.03;;;3.30;;
27402;SDS011;14862;49.494;8.530;2023-04-23T00:11:24;3.40;;;3.10;;
27402;SDS011;14862;49.494;8.530;2023-04-23T00:13:49;8.25;;;3.70;;
27402;SDS011;14862;49.494;8.530;2023-04-23T00:16:15;3.45;;;2.83;;
27402;SDS011;14862;49.494;8.530;2023-04-23T00:18:40;5.53;;;4.03;;
27402;SDS011;14862;49.494;8.530;2023-04-23T00:21:05;4.57;;;3.38;;
27402;SDS011;14862;49.494;8.530;2023-04-23T00:23:32;3.72;;;3.00;;
27402;SDS011;14862;49.494;8.530;2023-04-23T00:25:57;3.53;;;3.10;;
27402;SDS011;14862;49.494;8.530;2023-04-23T00:28:23;4.87;;;4.13;;
27402;SDS011;14862;49.494;8.530;2023-04-23T00:30:48;7.22;;;3.30;;
27402;SDS011;14862;49.494;8.530;2023-04-23T00:33:13;4.60;;;3.13;;
27402;SDS011;14862;49.494;8.530;2023-04-23T00:35:40;3.88;;;3.42;;
27402;SDS011;14862;49.494;8.530;2023-04-23T00:38:05;6.55;;;3.70;;
27402;SDS011;14862;49.494;8.530;2023-04-23T00:40:30;6.67;;;4.10;;
27402;SDS011;14862;49.494;8.530;2023-04-23T00:42:55;3.72;;;3.38;;
27402;SDS011;14862;49.494;8.530;2023-04-23T00:45:22;4.40;;;3.25;;
27402;SDS011;14862;49.494;8.530;2023-04-23T00:47:47;8.38;;;3.53;;
27402;SDS011;14862;49.494;8.530;2023-04-23T00:50:13;6.00;;;3.67;;
27402;SDS011;14862;49.494;8.530;2023-04-23T00:52:38;5.10;;;3.15;;
27402;SDS011;14862;49.494;8.530;2023-04-23T00:55:05;6.53;;;4.55;;
27402;SDS011;14862;49.494;8.530;2023-04-23T00:57:30;6.38;;;3.45;;
27402;SDS011;14862;49.494;8.530;2023-04-23T00:59:56;4.28;;;3.40;;
27402;SDS011;14862;49.494;8.530;2023-04-23T01:02:22;6.43;;;4.05;;
27402;SDS011;14862;49.494;8.530;2023-04-23T01:04:48;6.07;;;3.90;;
27402;SDS011;14862;49.494;8.530;2023-04-23T01:07:15;9.63;;;4.63;;
27402;SDS011;14862;49.494;8.530;2023-04-23T01:09:40;5.80;;;3.90;;
27402;SDS011;14862;49.494;8.530;2023-04-23T01:12:06;7.15;;;5.18;;
27402;SDS011;14862;49.494;8.530;2023-04-23T01:14:31;5.47;;;4.18;;
27402;SDS011;14862;49.494;8.530;2023-04-23T01:16:56;6.65;;;4.20;;
27402;SDS011;14862;49.494;8.530;2023-04-23T01:19:22;5.75;;;3.92;;
27402;SDS011;14862;49.494;8.530;2023-04-23T01:21:48;7.10;;;4.53;;
27402;SDS011;14862;49.494;8.530;2023-04-23T01:24:13;9.05;;;4.38;;
27402;SDS011;14862;49.494;8.530;2023-04-23T01:26:38;8.90;;;3.88;;
27402;SDS011;14862;49.494;8.530;2023-04-23T01:29:04;9.27;;;4.78;;
27402;SDS011;14862;49.494;8.530;2023-04-23T01:31:30;7.40;;;4.65;;
27402;SDS011;14862;49.494;8.530;2023-04-23T01:33:56;8.52;;;4.70;;
27402;SDS011;14862;49.494;8.530;2023-04-23T01:36:23;7.57;;;4.53;;
27402;SDS011;14862;49.494;8.530;2023-04-23T01:38:48;7.85;;;4.95;;
27402;SDS011;14862;49.494;8.530;2023-04-23T01:41:13;11.10;;;5.25;;
27402;SDS011;14862;49.494;8.530;2023-04-23T01:43:40;6.90;;;4.40;;
27402;SDS011;14862;49.494;8.530;2023-04-23T01:46:05;7.35;;;4.35;;
27402;SDS011;14862;49.494;8.530;2023-04-23T01:48:30;6.20;;;4.30;;
27402;SDS011;14862;49.494;8.530;2023-04-23T01:50:56;5.65;;;4.40;;
27402;SDS011;14862;49.494;8.530;2023-04-23T01:53:21;8.40;;;4.82;;
27402;SDS011;14862;49.494;8.530;2023-04-23T01:55:47;7.45;;;4.75;;
27402;SDS011;14862;49.494;8.530;2023-04-23T01:58:12;5.63;;;4.43;;
27402;SDS011;14862;49.494;8.530;2023-04-23T02:00:37;4.78;;;4.05;;
27402;SDS011;14862;49.494;8.530;2023-04-23T02:03:03;6.57;;;4.35;;
27402;SDS011;14862;49.494;8.530;2023-04-23T02:05:28;5.32;;;4.63;;
27402;SDS011;14862;49.494;8.530;2023-04-23T02:07:54;5.28;;;4.30;;
27402;SDS011;14862;49.494;8.530;2023-04-23T02:10:19;8.27;;;4.93;;
27402;SDS011;14862;49.494;8.530;2023-04-23T02:12:45;8.82;;;4.43;;
27402;SDS011;14862;49.494;8.530;2023-04-23T02:15:11;8.27;;;4.43;;
27402;SDS011;14862;49.494;8.530;2023-04-23T02:17:36;8.65;;;4.20;;
27402;SDS011;14862;49.494;8.530;2023-04-23T02:20:04;6.45;;;4.72;;
27402;SDS011;14862;49.494;8.530;2023-04-23T02:22:30;9.20;;;5.20;;
27402;SDS011;14862;49.494;8.530;2023-04-23T02:24:55;6.63;;;4.45;;
27402;SDS011;14862;49.494;8.530;2023-04-23T02:27:20;5.40;;;3.97;;
27402;SDS011;14862;49.494;8.530;2023-04-23T02:29:46;6.23;;;4.37;;
27402;SDS011;14862;49.494;8.530;2023-04-23T02:32:12;5.50;;;4.50;;
27402;SDS011;14862;49.494;8.530;2023-04-23T02:34:37;6.40;;;4.15;;
27402;SDS011;14862;49.494;8.530;2023-04-23T02:37:03;5.85;;;4.40;;
27402;SDS011;14862;49.494;8.530;2023-04-23T02:39:29;6.10;;;4.68;;
27402;SDS011;14862;49.494;8.530;2023-04-23T02:41:54;7.70;;;4.47;;
27402;SDS011;14862;49.494;8.530;2023-04-23T02:44:20;5.55;;;4.13;;
27402;SDS011;14862;49.494;8.530;2023-04-23T02:46:45;8.38;;;4.50;;
27402;SDS011;14862;49.494;8.530;2023-04-23T02:49:11;5.57;;;4.97;;
27402;SDS011;14862;49.494;8.530;2023-04-23T02:51:36;7.95;;;5.10;;
27402;SDS011;14862;49.494;8.530;2023-04-23T02:54:01;6.80;;;4.63;;
27402;SDS011;14862;49.494;8.530;2023-04-23T02:56:28;7.07;;;4.97;;
27402;SDS011;14862;49.494;8.530;2023-04-23T02:58:53;5.93;;;4.53;;
27402;SDS011;14862;49.494;8.530;2023-04-23T03:01:18;7.38;;;4.80;;
27402;SDS011;14862;49.494;8.530;2023-04-23T03:03:43;9.95;;;6.47;;
27402;SDS011;14862;49.494;8.530;2023-04-23T03:06:08;6.17;;;5.23;;
27402;SDS011;14862;49.494;8.530;2023-04-23T03:08:34;8.02;;;5.18;;
27402;SDS011;14862;49.494;8.530;2023-04-23T03:10:59;8.82;;;5.65;;
27402;SDS011;14862;49.494;8.530;2023-04-23T03:13:25;9.77;;;5.32;;
27402;SDS011;14862;49.494;8.530;2023-04-23T03:15:50;5.75;;;5.22;;
27402;SDS011;14862;49.494;8.530;2023-04-23T03:18:16;6.78;;;5.20;;
27402;SDS011;14862;49.494;8.530;2023-04-23T03:20:41;5.82;;;4.90;;
27402;SDS011;14862;49.494;8.530;2023-04-23T03:23:06;5.88;;;5.18;;
27402;SDS011;14862;49.494;8.530;2023-04-23T03:25:32;7.22;;;5.20;;
27402;SDS011;14862;49.494;8.530;2023-04-23T03:27:57;7.40;;;5.30;;
27402;SDS011;14862;49.494;8.530;2023-04-23T03:30:22;9.00;;;5.03;;
27402;SDS011;14862;49.494;8.530;2023-04-23T03:32:48;7.93;;;5.00;;
27402;SDS011;14862;49.494;8.530;2023-04-23T03:35:13;9.77;;;5.05;;
27402;SDS011;14862;49.494;8.530;2023-04-23T03:37:39;24.38;;;5.88;;
27402;SDS011;14862;49.494;8.530;2023-04-23T03:40:04;6.82;;;4.80;;
27402;SDS011;14862;49.494;8.530;2023-04-23T03:42:32;5.72;;;4.55;;
27402;SDS011;14862;49.494;8.530;2023-04-23T03:44:57;6.25;;;4.93;;
27402;SDS011;14862;49.494;8.530;2023-04-23T03:47:22;6.43;;;4.43;;
27402;SDS011;14862;49.494;8.530;2023-04-23T03:49:48;4.77;;;4.33;;
27402;SDS011;14862;49.494;8.530;2023-04-23T03:52:13;5.90;;;4.13;;
27402;SDS011;14862;49.494;8.530;2023-04-23T03:54:38;6.27;;;4.40;;
27402;SDS011;14862;49.494;8.530;2023-04-23T03:57:03;5.87;;;4.13;;
27402;SDS011;14862;49.494;8.530;2023-04-23T03:59:28;5.90;;;4.27;;
27402;SDS011;14862;49.494;8.530;2023-04-23T04:01:53;4.20;;;3.63;;
27402;SDS011;14862;49.494;8.530;2023-04-23T04:04:19;4.30;;;3.90;;
27402;SDS011;14862;49.494;8.530;2023-04-23T04:06:44;4.68;;;3.47;;
27402;SDS011;14862;49.494;8.530;2023-04-23T04:09:09;7.93;;;3.83;;
27402;SDS011;14862;49.494;8.530;2023-04-23T04:11:35;4.28;;;3.58;;
27402;SDS011;14862;49.494;8.530;2023-04-23T04:14:00;3.72;;;3.17;;
27402;SDS011;14862;49.494;8.530;2023-04-23T04:16:26;5.82;;;3.30;;
27402;SDS011;14862;49.494;8.530;2023-04-23T04:18:51;4.03;;;2.75;;
27402;SDS011;14862;49.494;8.530;2023-04-23T04:21:16;6.38;;;3.30;;
27402;SDS011;14862;49.494;8.530;2023-04-23T04:23:43;3.65;;;3.20;;
27402;SDS011;14862;49.494;8.530;2023-04-23T04:26:09;5.10;;;3.08;;
27402;SDS011;14862;49.494;8.530;2023-04-23T04:28:34;5.40;;;2.95;;
27402;SDS011;14862;49.494;8.530;2023-04-23T04:31:01;4.30;;;2.97;;
27402;SDS011;14862;49.494;8.530;2023-04-23T04:33:27;3.40;;;3.08;;
27402;SDS011;14862;49.494;8.530;2023-04-23T04:35:53;3.90;;;3.05;;
27402;SDS011;14862;49.494;8.530;2023-04-23T04:38:18;5.65;;;2.97;;
27402;SDS011;14862;49.494;8.530;2023-04-23T04:40:43;4.80;;;3.30;;
27402;SDS011;14862;49.494;8.530;2023-04-23T04:43:09;3.10;;;2.78;;
27402;SDS011;14862;49.494;8.530;2023-04-23T04:45:34;3.90;;;3.23;;
27402;SDS011;14862;49.494;8.530;2023-04-23T04:48:00;4.80;;;2.90;;
27402;SDS011;14862;49.494;8.530;2023-04-23T04:50:25;3.20;;;2.90;;
27402;SDS011;14862;49.494;8.530;2023-04-23T04:52:50;5.10;;;3.33;;
27402;SDS011;14862;49.494;8.530;2023-04-23T04:55:15;3.20;;;2.90;;
27402;SDS011;14862;49.494;8.530;2023-04-23T04:57:41;4.47;;;3.10;;
27402;SDS011;14862;49.494;8.530;2023-04-23T05:00:28;4.30;;;3.17;;
27402;SDS011;14862;49.494;8.530;2023-04-23T05:02:53;3.70;;;3.40;;
27402;SDS011;14862;49.494;8.530;2023-04-23T05:05:18;5.13;;;3.50;;
27402;SDS011;14862;49.494;8.530;2023-04-23T05:07:44;5.40;;;4.07;;
27402;SDS011;14862;49.494;8.530;2023-04-23T05:10:10;4.70;;;3.35;;
27402;SDS011;14862;49.494;8.530;2023-04-23T05:12:35;4.05;;;3.17;;
27402;SDS011;14862;49.494;8.530;2023-04-23T05:15:01;3.95;;;3.20;;
27402;SDS011;14862;49.494;8.530;2023-04-23T05:17:26;7.60;;;4.15;;
27402;SDS011;14862;49.494;8.530;2023-04-23T05:19:51;6.77;;;3.90;;
27402;SDS011;14862;49.494;8.530;2023-04-23T05:22:17;6.30;;;4.90;;
27402;SDS011;14862;49.494;8.530;2023-04-23T05:24:42;5.38;;;4.50;;
27402;SDS011;14862;49.494;8.530;2023-04-23T05:27:08;6.18;;;5.40;;
27402;SDS011;14862;49.494;8.530;2023-04-23T05:29:33;5.30;;;4.45;;
27402;SDS011;14862;49.494;8.530;2023-04-23T05:31:58;4.87;;;4.37;;
27402;SDS011;14862;49.494;8.530;2023-04-23T05:34:24;4.93;;;3.55;;
27402;SDS011;14862;49.494;8.530;2023-04-23T05:36:49;4.70;;;4.07;;
27402;SDS011;14862;49.494;8.530;2023-04-23T05:39:14;5.13;;;4.40;;
27402;SDS011;14862;49.494;8.530;2023-04-23T05:41:39;4.97;;;4.07;;
27402;SDS011;14862;49.494;8.530;2023-04-23T05:44:05;6.82;;;4.05;;
27402;SDS011;14862;49.494;8.530;2023-04-23T05:46:30;5.75;;;4.60;;
27402;SDS011;14862;49.494;8.530;2023-04-23T05:48:55;7.70;;;4.43;;
27402;SDS011;14862;49.494;8.530;2023-04-23T05:51:20;4.30;;;3.90;;
27402;SDS011;14862;49.494;8.530;2023-04-23T05:53:46;5.40;;;3.65;;
27402;SDS011;14862;49.494;8.530;2023-04-23T05:56:11;5.80;;;4.33;;
27402;SDS011;14862;49.494;8.530;2023-04-23T05:58:36;6.70;;;4.13;;
27402;SDS011;14862;49.494;8.530;2023-04-23T06:01:02;4.78;;;4.15;;
27402;SDS011;14862;49.494;8.530;2023-04-23T06:03:28;5.05;;;4.32;;
27402;SDS011;14862;49.494;8.530;2023-04-23T06:05:53;5.03;;;4.47;;
27402;SDS011;14862;49.494;8.530;2023-04-23T06:08:18;5.13;;;4.30;;
27402;SDS011;14862;49.494;8.530;2023-04-23T06:10:44;6.40;;;4.53;;
27402;SDS011;14862;49.494;8.530;2023-04-23T06:13:09;6.47;;;4.82;;
27402;SDS011;14862;49.494;8.530;2023-04-23T06:15:35;5.68;;;5.07;;
27402;SDS011;14862;49.494;8.530;2023-04-23T06:18:00;8.02;;;5.13;;
27402;SDS011;14862;49.494;8.530;2023-04-23T06:20:25;6.18;;;5.55;;
27402;SDS011;14862;49.494;8.530;2023-04-23T06:22:50;5.38;;;4.55;;
27402;SDS011;14862;49.494;8.530;2023-04-23T06:25:16;5.93;;;5.05;;
27402;SDS011;14862;49.494;8.530;2023-04-23T06:27:41;5.63;;;4.97;;
27402;SDS011;14862;49.494;8.530;2023-04-23T06:30:06;8.52;;;4.85;;
27402;SDS011;14862;49.494;8.530;2023-04-23T06:32:32;7.32;;;4.60;;
27402;SDS011;14862;49.494;8.530;2023-04-23T06:34:57;6.68;;;4.28;;
27402;SDS011;14862;49.494;8.530;2023-04-23T06:37:22;5.03;;;4.53;;
27402;SDS011;14862;49.494;8.530;2023-04-23T06:39:47;4.30;;;3.53;;
27402;SDS011;14862;49.494;8.530;2023-04-23T06:42:13;4.25;;;3.47;;
27402;SDS011;14862;49.494;8.530;2023-04-23T06:44:38;5.13;;;3.50;;
27402;SDS011;14862;49.494;8.530;2023-04-23T06:47:03;4.07;;;3.40;;
27402;SDS011;14862;49.494;8.530;2023-04-23T06:49:29;4.38;;;2.97;;
27402;SDS011;14862;49.494;8.530;2023-04-23T06:51:54;3.15;;;2.85;;
27402;SDS011;14862;49.494;8.530;2023-04-23T06:54:20;3.05;;;2.55;;
27402;SDS011;14862;49.494;8.530;2023-04-23T06:56:45;2.78;;;2.58;;
27402;SDS011;14862;49.494;8.530;2023-04-23T06:59:10;5.33;;;2.43;;
27402;SDS011;14862;49.494;8.530;2023-04-23T07:01:35;3.42;;;2.97;;
27402;SDS011;14862;49.494;8.530;2023-04-23T07:04:01;7.03;;;2.78;;
27402;SDS011;14862;49.494;8.530;2023-04-23T07:06:26;2.67;;;2.53;;
27402;SDS011;14862;49.494;8.530;2023-04-23T07:08:51;2.50;;;2.30;;
27402;SDS011;14862;49.494;8.530;2023-04-23T07:11:17;2.78;;;2.05;;
27402;SDS011;14862;49.494;8.530;2023-04-23T07:13:42;2.30;;;2.10;;
27402;SDS011;14862;49.494;8.530;2023-04-23T07:16:07;2.22;;;2.03;;
27402;SDS011;14862;49.494;8.530;2023-04-23T07:18:32;2.10;;;1.90;;
27402;SDS011;14862;49.494;8.530;2023-04-23T07:20:58;2.30;;;2.07;;
27402;SDS011;14862;49.494;8.530;2023-04-23T07:23:23;2.00;;;1.90;;
27402;SDS011;14862;49.494;8.530;2023-04-23T07:25:48;2.23;;;1.97;;
27402;SDS011;14862;49.494;8.530;2023-04-23T07:28:13;3.25;;;2.65;;
27402;SDS011;14862;49.494;8.530;2023-04-23T07:30:39;2.53;;;2.00;;
27402;SDS011;14862;49.494;8.530;2023-04-23T07:33:04;1.90;;;1.70;;
27402;SDS011;14862;49.494;8.530;2023-04-23T07:35:29;2.45;;;2.13;;
27402;SDS011;14862;49.494;8.530;2023-04-23T07:37:54;2.40;;;1.77;;
27402;SDS011;14862;49.494;8.530;2023-04-23T07:40:22;2.40;;;1.73;;
27402;SDS011;14862;49.494;8.530;2023-04-23T07:42:47;1.88;;;1.77;;
27402;SDS011;14862;49.494;8.530;2023-04-23T07:45:12;3.08;;;2.17;;
27402;SDS011;14862;49.494;8.530;2023-04-23T07:47:38;5.22;;;2.50;;
27402;SDS011;14862;49.494;8.530;2023-04-23T07:50:03;3.05;;;1.77;;
27402;SDS011;14862;49.494;8.530;2023-04-23T07:52:29;2.72;;;2.25;;
27402;SDS011;14862;49.494;8.530;2023-04-23T07:54:54;2.33;;;2.13;;
27402;SDS011;14862;49.494;8.530;2023-04-23T07:57:20;2.75;;;2.25;;
27402;SDS011;14862;49.494;8.530;2023-04-23T07:59:45;3.03;;;2.10;;
27402;SDS011;14862;49.494;8.530;2023-04-23T08:02:10;2.40;;;2.20;;
27402;SDS011;14862;49.494;8.530;2023-04-23T08:04:35;3.00;;;2.37;;
27402;SDS011;14862;49.494;8.530;2023-04-23T08:07:01;3.17;;;2.33;;
27402;SDS011;14862;49.494;8.530;2023-04-23T08:09:26;4.30;;;2.33;;
27402;SDS011;14862;49.494;8.530;2023-04-23T08:11:51;4.50;;;2.55;;
27402;SDS011;14862;49.494;8.530;2023-04-23T08:14:17;2.65;;;2.40;;
27402;SDS011;14862;49.494;8.530;2023-04-23T08:16:42;4.10;;;2.90;;
27402;SDS011;14862;49.494;8.530;2023-04-23T08:19:07;3.63;;;2.43;;
27402;SDS011;14862;49.494;8.530;2023-04-23T08:21:32;2.47;;;2.27;;
27402;SDS011;14862;49.494;8.530;2023-04-23T08:23:58;2.40;;;2.20;;
27402;SDS011;14862;49.494;8.530;2023-04-23T08:26:23;5.43;;;2.67;;
27402;SDS011;14862;49.494;8.530;2023-04-23T08:28:48;2.50;;;2.30;;
27402;SDS011;14862;49.494;8.530;2023-04-23T08:31:14;4.40;;;3.00;;
27402;SDS011;14862;49.494;8.530;2023-04-23T08:33:40;2.33;;;2.13;;
27402;SDS011;14862;49.494;8.530;2023-04-23T08:36:05;2.30;;;2.08;;
27402;SDS011;14862;49.494;8.530;2023-04-23T08:38:30;3.45;;;1.80;;
27402;SDS011;14862;49.494;8.530;2023-04-23T08:40:56;2.72;;;2.13;;
27402;SDS011;14862;49.494;8.530;2023-04-23T08:43:26;2.72;;;2.35;;
27402;SDS011;14862;49.494;8.530;2023-04-23T08:45:55;4.82;;;2.42;;
27402;SDS011;14862;49.494;8.530;2023-04-23T08:48:21;2.47;;;2.28;;
27402;SDS011;14862;49.494;8.530;2023-04-23T08:50:46;2.33;;;1.97;;
27402;SDS011;14862;49.494;8.530;2023-04-23T08:53:15;3.15;;;2.10;;
27402;SDS011;14862;49.494;8.530;2023-04-23T08:55:41;2.70;;;2.05;;
27402;SDS011;14862;49.494;8.530;2023-04-23T08:58:06;2.92;;;1.75;;
27402;SDS011;14862;49.494;8.530;2023-04-23T09:00:32;1.70;;;1.60;;
27402;SDS011;14862;49.494;8.530;2023-04-23T09:03:00;2.50;;;1.90;;
27402;SDS011;14862;49.494;8.530;2023-04-23T09:05:25;1.92;;;1.70;;
27402;SDS011;14862;49.494;8.530;2023-04-23T09:07:52;2.38;;;1.95;;
27402;SDS011;14862;49.494;8.530;2023-04-23T09:10:18;4.15;;;1.70;;
27402;SDS011;14862;49.494;8.530;2023-04-23T09:12:43;3.60;;;1.95;;
27402;SDS011;14862;49.494;8.530;2023-04-23T09:15:09;2.67;;;1.98;;
27402;SDS011;14862;49.494;8.530;2023-04-23T09:17:39;2.13;;;1.90;;
27402;SDS011;14862;49.494;8.530;2023-04-23T09:20:05;1.85;;;1.75;;
27402;SDS011;14862;49.494;8.530;2023-04-23T09:22:50;4.20;;;2.03;;
27402;SDS011;14862;49.494;8.530;2023-04-23T09:25:19;4.03;;;2.00;;
27402;SDS011;14862;49.494;8.530;2023-04-23T09:27:45;3.03;;;1.70;;
27402;SDS011;14862;49.494;8.530;2023-04-23T09:30:11;2.47;;;1.98;;
27402;SDS011;14862;49.494;8.530;2023-04-23T09:32:37;4.55;;;2.20;;
27402;SDS011;14862;49.494;8.530;2023-04-23T09:35:07;2.72;;;2.30;;
27402;SDS011;14862;49.494;8.530;2023-04-23T09:37:32;2.35;;;2.05;;
27402;SDS011;14862;49.494;8.530;2023-04-23T09:39:58;2.30;;;2.10;;
27402;SDS011;14862;49.494;8.530;2023-04-23T09:42:24;2.88;;;2.60;;
27402;SDS011;14862;49.494;8.530;2023-04-23T09:44:59;3.35;;;2.35;;
27402;SDS011;14862;49.494;8.530;2023-04-23T09:47:24;3.72;;;2.10;;
27402;SDS011;14862;49.494;8.530;2023-04-23T09:49:49;3.22;;;2.40;;
27402;SDS011;14862;49.494;8.530;2023-04-23T09:52:15;3.55;;;2.40;;
27402;SDS011;14862;49.494;8.530;2023-04-23T09:54:41;2.85;;;2.35;;
27402;SDS011;14862;49.494;8.530;2023-04-23T09:57:06;3.85;;;2.25;;
27402;SDS011;14862;49.494;8.530;2023-04-23T09:59:33;3.63;;;2.55;;
27402;SDS011;14862;49.494;8.530;2023-04-23T10:02:03;2.00;;;1.80;;
27402;SDS011;14862;49.494;8.530;2023-04-23T10:04:29;3.53;;;2.47;;
27402;SDS011;14862;49.494;8.530;2023-04-23T10:06:54;4.00;;;2.22;;
27402;SDS011;14862;49.494;8.530;2023-04-23T10:09:20;3.88;;;1.80;;
27402;SDS011;14862;49.494;8.530;2023-04-23T10:11:50;2.75;;;1.95;;
27402;SDS011;14862;49.494;8.530;2023-04-23T10:14:18;2.22;;;2.03;;
27402;SDS011;14862;49.494;8.530;2023-04-23T10:16:43;2.35;;;2.15;;
27402;SDS011;14862;49.494;8.530;2023-04-23T10:19:10;3.65;;;2.40;;
27402;SDS011;14862;49.494;8.530;2023-04-23T10:21:37;2.65;;;2.13;;
27402;SDS011;14862;49.494;8.530;2023-04-23T10:24:02;3.15;;;2.30;;
27402;SDS011;14862;49.494;8.530;2023-04-23T10:26:28;3.88;;;1.85;;
27402;SDS011;14862;49.494;8.530;2023-04-23T10:28:55;2.90;;;2.22;;
27402;SDS011;14862;49.494;8.530;2023-04-23T10:31:22;3.78;;;2.00;;
27402;SDS011;14862;49.494;8.530;2023-04-23T10:33:48;3.15;;;1.75;;
27402;SDS011;14862;49.494;8.530;2023-04-23T10:36:14;1.85;;;1.60;;
27402;SDS011;14862;49.494;8.530;2023-04-23T10:38:40;2.90;;;2.05;;
27402;SDS011;14862;49.494;8.530;2023-04-23T10:41:06;2.70;;;1.77;;
27402;SDS011;14862;49.494;8.530;2023-04-23T10:43:32;1.85;;;1.70;;
27402;SDS011;14862;49.494;8.530;2023-04-23T10:45:57;2.15;;;1.67;;
27402;SDS011;14862;49.494;8.530;2023-04-23T10:48:26;3.03;;;1.80;;
27402;SDS011;14862;49.494;8.530;2023-04-23T10:50:56;2.85;;;1.80;;
27402;SDS011;14862;49.494;8.530;2023-04-23T10:53:21;3.20;;;1.52;;
27402;SDS011;14862;49.494;8.530;2023-04-23T10:55:46;3.20;;;1.60;;
27402;SDS011;14862;49.494;8.530;2023-04-23T10:58:12;1.50;;;1.40;;
27402;SDS011;14862;49.494;8.530;2023-04-23T11:03:25;2.70;;;1.77;;
27402;SDS011;14862;49.494;8.530;2023-04-23T11:05:51;2.38;;;1.80;;
27402;SDS011;14862;49.494;8.530;2023-04-23T11:08:16;3.10;;;2.10;;
27402;SDS011;14862;49.494;8.530;2023-04-23T11:10:54;1.73;;;1.42;;
27402;SDS011;14862;49.494;8.530;2023-04-23T11:13:27;4.10;;;1.80;;
27402;SDS011;14862;49.494;8.530;2023-04-23T11:21:19;1.97;;;1.40;;
27402;SDS011;14862;49.494;8.530;2023-04-23T11:23:45;3.00;;;1.83;;
27402;SDS011;14862;49.494;8.530;2023-04-23T11:26:10;1.80;;;1.70;;
27402;SDS011;14862;49.494;8.530;2023-04-23T11:28:35;2.58;;;1.63;;
27402;SDS011;14862;49.494;8.530;2023-04-23T11:31:02;1.45;;;1.35;;
27402;SDS011;14862;49.494;8.530;2023-04-23T11:33:28;3.47;;;1.50;;
27402;SDS011;14862;49.494;8.530;2023-04-23T11:35:54;3.55;;;1.20;;
27402;SDS011;14862;49.494;8.530;2023-04-23T11:38:19;2.30;;;1.67;;
27402;SDS011;14862;49.494;8.530;2023-04-23T11:40:45;2.78;;;1.88;;
27402;SDS011;14862;49.494;8.530;2023-04-23T11:43:16;1.70;;;1.60;;
27402;SDS011;14862;49.494;8.530;2023-04-23T11:45:42;2.35;;;1.63;;
27402;SDS011;14862;49.494;8.530;2023-04-23T11:48:08;1.73;;;1.48;;
27402;SDS011;14862;49.494;8.530;2023-04-23T11:50:34;1.88;;;1.60;;
27402;SDS011;14862;49.494;8.530;2023-04-23T11:53:06;2.72;;;1.52;;
27402;SDS011;14862;49.494;8.530;2023-04-23T11:55:32;2.63;;;1.70;;
27402;SDS011;14862;49.494;8.530;2023-04-23T11:57:58;3.25;;;1.70;;
27402;SDS011;14862;49.494;8.530;2023-04-23T12:00:24;3.67;;;2.00;;
27402;SDS011;14862;49.494;8.530;2023-04-23T12:02:57;3.63;;;1.67;;
27402;SDS011;14862;49.494;8.530;2023-04-23T12:05:32;1.58;;;1.40;;
27402;SDS011;14862;49.494;8.530;2023-04-23T12:08:06;2.05;;;1.65;;
27402;SDS011;14862;49.494;8.530;2023-04-23T12:10:32;2.63;;;1.50;;
27402;SDS011;14862;49.494;8.530;2023-04-23T12:12:57;3.03;;;1.33;;
27402;SDS011;14862;49.494;8.530;2023-04-23T12:15:22;2.10;;;1.15;;
27402;SDS011;14862;49.494;8.530;2023-04-23T12:17:48;3.15;;;1.48;;
27402;SDS011;14862;49.494;8.530;2023-04-23T12:20:17;1.42;;;1.15;;
27402;SDS011;14862;49.494;8.530;2023-04-23T12:22:43;1.85;;;1.23;;
27402;SDS011;14862;49.494;8.530;2023-04-23T12:25:08;1.63;;;1.30;;
27402;SDS011;14862;49.494;8.530;2023-04-23T12:27:37;2.38;;;1.35;;
27402;SDS011;14862;49.494;8.530;2023-04-23T12:30:03;1.35;;;1.25;;
27402;SDS011;14862;49.494;8.530;2023-04-23T12:32:28;2.97;;;1.30;;
27402;SDS011;14862;49.494;8.530;2023-04-23T12:34:54;1.20;;;1.10;;
27402;SDS011;14862;49.494;8.530;2023-04-23T12:37:25;1.60;;;1.20;;
27402;SDS011;14862;49.494;8.530;2023-04-23T12:39:51;3.22;;;1.13;;
27402;SDS011;14862;49.494;8.530;2023-04-23T12:42:17;2.90;;;1.42;;
27402;SDS011;14862;49.494;8.530;2023-04-23T12:44:42;5.45;;;1.50;;
27402;SDS011;14862;49.494;8.530;2023-04-23T12:47:08;3.08;;;1.45;;
27402;SDS011;14862;49.494;8.530;2023-04-23T12:49:34;2.00;;;1.42;;
27402;SDS011;14862;49.494;8.530;2023-04-23T12:52:00;4.15;;;1.33;;
27402;SDS011;14862;49.494;8.530;2023-04-23T12:54:27;1.15;;;1.02;;
27402;SDS011;14862;49.494;8.530;2023-04-23T12:56:53;1.17;;;1.00;;
27402;SDS011;14862;49.494;8.530;2023-04-23T12:59:19;5.15;;;1.00;;
27402;SDS011;14862;49.494;8.530;2023-04-23T13:01:44;1.45;;;1.13;;
27402;SDS011;14862;49.494;8.530;2023-04-23T13:04:09;2.58;;;1.38;;
27402;SDS011;14862;49.494;8.530;2023-04-23T13:06:35;2.63;;;1.10;;
27402;SDS011;14862;49.494;8.530;2023-04-23T13:09:00;1.55;;;1.00;;
27402;SDS011;14862;49.494;8.530;2023-04-23T13:11:29;1.30;;;1.17;;
27402;SDS011;14862;49.494;8.530;2023-04-23T13:13:54;2.13;;;1.20;;
27402;SDS011;14862;49.494;8.530;2023-04-23T13:16:19;1.13;;;1.02;;
27402;SDS011;14862;49.494;8.530;2023-04-23T13:18:44;1.23;;;1.13;;
27402;SDS011;14862;49.494;8.530;2023-04-23T13:21:10;1.38;;;1.00;;
27402;SDS011;14862;49.494;8.530;2023-04-23T13:23:35;2.07;;;1.43;;
27402;SDS011;14862;49.494;8.530;2023-04-23T13:26:02;0.88;;;0.88;;
27402;SDS011;14862;49.494;8.530;2023-04-23T13:28:27;1.15;;;1.05;;
27402;SDS011;14862;49.494;8.530;2023-04-23T13:30:52;1.48;;;0.90;;
27402;SDS011;14862;49.494;8.530;2023-04-23T13:33:17;0.80;;;0.80;;
27402;SDS011;14862;49.494;8.530;2023-04-23T13:35:43;2.67;;;1.10;;
27402;SDS011;14862;49.494;8.530;2023-04-23T13:38:08;1.05;;;0.80;;
27402;SDS011;14862;49.494;8.530;2023-04-23T13:40:34;2.05;;;1.20;;
27402;SDS011;14862;49.494;8.530;2023-04-23T13:43:00;2.40;;;1.00;;
27402;SDS011;14862;49.494;8.530;2023-04-23T13:45:25;0.77;;;0.77;;
27402;SDS011;14862;49.494;8.530;2023-04-23T13:47:50;3.10;;;1.00;;
27402;SDS011;14862;49.494;8.530;2023-04-23T13:50:15;1.42;;;0.90;;
27402;SDS011;14862;49.494;8.530;2023-04-23T13:52:40;1.10;;;1.00;;
27402;SDS011;14862;49.494;8.530;2023-04-23T13:55:06;1.92;;;1.25;;
27402;SDS011;14862;49.494;8.530;2023-04-23T13:57:32;1.70;;;0.90;;
27402;SDS011;14862;49.494;8.530;2023-04-23T13:59:57;3.45;;;1.20;;
27402;SDS011;14862;49.494;8.530;2023-04-23T14:02:24;1.27;;;1.00;;
27402;SDS011;14862;49.494;8.530;2023-04-23T14:04:49;1.33;;;0.90;;
27402;SDS011;14862;49.494;8.530;2023-04-23T14:07:14;1.37;;;0.90;;
27402;SDS011;14862;49.494;8.530;2023-04-23T14:09:39;1.00;;;0.85;;
27402;SDS011;14862;49.494;8.530;2023-04-23T14:12:05;1.48;;;1.35;;
27402;SDS011;14862;49.494;8.530;2023-04-23T14:14:30;3.45;;;1.40;;
27402;SDS011;14862;49.494;8.530;2023-04-23T14:16:55;0.93;;;0.93;;
27402;SDS011;14862;49.494;8.530;2023-04-23T14:19:20;1.50;;;1.40;;
27402;SDS011;14862;49.494;8.530;2023-04-23T14:21:46;4.22;;;1.20;;
27402;SDS011;14862;49.494;8.530;2023-04-23T14:24:33;3.50;;;1.33;;
27402;SDS011;14862;49.494;8.530;2023-04-23T14:26:56;3.00;;;1.27;;
27402;SDS011;14862;49.494;8.530;2023-04-23T14:31:47;2.53;;;1.23;;
27402;SDS011;14862;49.494;8.530;2023-04-23T14:34:12;1.95;;;1.30;;
27402;SDS011;14862;49.494;8.530;2023-04-23T14:36:37;3.77;;;1.60;;
27402;SDS011;14862;49.494;8.530;2023-04-23T14:39:02;1.58;;;1.10;;
27402;SDS011;14862;49.494;8.530;2023-04-23T14:41:31;1.08;;;0.98;;
27402;SDS011;14862;49.494;8.530;2023-04-23T14:43:58;1.73;;;1.00;;
27402;SDS011;14862;49.494;8.530;2023-04-23T14:46:23;1.27;;;0.95;;
27402;SDS011;14862;49.494;8.530;2023-04-23T14:48:48;1.73;;;1.02;;
27402;SDS011;14862;49.494;8.530;2023-04-23T14:51:13;2.00;;;1.08;;